createdAt,value
2022-11-23T00:00:40.319Z,99317.16
2022-11-23T00:03:06.760Z,99318.31
2022-11-23T00:05:34.373Z,99322.50
2022-11-23T00:08:00.800Z,99319.03
2022-11-23T00:10:27.271Z,99324.13
2022-11-23T00:12:53.708Z,99326.75
2022-11-23T00:15:20.144Z,99333.38
2022-11-23T00:17:48.300Z,99325.09
2022-11-23T00:20:14.788Z,99329.09
2022-11-23T00:22:41.243Z,99327.44
2022-11-23T00:25:08.171Z,99325.13
2022-11-23T00:27:34.658Z,99328.59
2022-11-23T00:30:01.653Z,99328.97
2022-11-23T00:32:29.915Z,99325.72
2022-11-23T00:34:56.403Z,99332.06
2022-11-23T00:37:22.836Z,99339.59
2022-11-23T00:39:49.288Z,99333.53
2022-11-23T00:42:15.730Z,99328.34
2022-11-23T00:44:42.165Z,99332.81
2022-11-23T00:47:08.628Z,99332.69
2022-11-23T00:49:35.117Z,99335.03
2022-11-23T00:52:01.651Z,99334.19
2022-11-23T00:54:28.098Z,99339.63
2022-11-23T00:56:54.607Z,99338.81
2022-11-23T00:59:21.171Z,99343.22
2022-11-23T01:01:49.006Z,99339.09
2022-11-23T01:04:15.695Z,99345.28
2022-11-23T01:06:42.161Z,99346.97
2022-11-23T01:09:13.732Z,99356.44
2022-11-23T01:11:40.619Z,99355.59
2022-11-23T01:14:07.592Z,99346.13
2022-11-23T01:16:37.029Z,99359.44
2022-11-23T01:19:06.911Z,99360.00
2022-11-23T01:21:34.258Z,99364.19
2022-11-23T01:24:03.693Z,99362.69
2022-11-23T01:26:30.152Z,99359.44
2022-11-23T01:28:56.618Z,99368.28
2022-11-23T01:31:24.495Z,99374.00
2022-11-23T01:33:55.897Z,99380.69
2022-11-23T01:36:24.563Z,99377.63
2022-11-23T01:38:51.495Z,99369.41
2022-11-23T01:41:23.416Z,99378.69
2022-11-23T01:43:51.428Z,99373.81
2022-11-23T01:46:18.690Z,99381.88
2022-11-23T01:49:11.478Z,99382.50
2022-11-23T01:51:43.338Z,99385.19
2022-11-23T01:54:14.242Z,99393.19
2022-11-23T01:56:46.278Z,99380.44
2022-11-23T01:59:17.087Z,99382.84
2022-11-23T02:01:44.279Z,99384.44
2022-11-23T02:04:16.046Z,99393.41
2022-11-23T02:06:44.975Z,99392.63
2022-11-23T02:09:11.522Z,99394.59
2022-11-23T02:11:37.945Z,99388.31
2022-11-23T02:14:04.395Z,99394.25
2022-11-23T02:16:30.900Z,99395.88
2022-11-23T02:18:57.429Z,99392.63
2022-11-23T02:21:24.171Z,99394.97
2022-11-23T02:24:33.667Z,99396.31
2022-11-23T02:27:01.898Z,99396.94
2022-11-23T02:29:29.635Z,99403.19
2022-11-23T02:31:56.425Z,99399.56
2022-11-23T02:34:22.886Z,99392.59
2022-11-23T02:36:51.711Z,99396.91
2022-11-23T02:39:38.084Z,99403.50
2022-11-23T02:42:05.889Z,99402.28
2022-11-23T02:44:37.351Z,99392.88
2022-11-23T02:47:05.501Z,99401.44
2022-11-23T02:49:32.469Z,99404.91
2022-11-23T02:51:59.455Z,99407.25
2022-11-23T02:54:26.377Z,99410.06
2022-11-23T02:56:52.836Z,99414.75
2022-11-23T02:59:20.650Z,99405.75
2022-11-23T03:01:47.835Z,99411.44
2022-11-23T03:04:14.895Z,99406.19
2022-11-23T03:06:42.260Z,99403.09
2022-11-23T03:09:09.134Z,99420.38
2022-11-23T03:11:35.629Z,99410.59
2022-11-23T03:14:02.066Z,99414.16
2022-11-23T03:16:28.583Z,99421.47
2022-11-23T03:18:55.230Z,99413.94
2022-11-23T03:21:21.641Z,99407.66
2022-11-23T03:23:48.144Z,99416.28
2022-11-23T03:26:14.570Z,99417.16
2022-11-23T03:28:41.001Z,99414.81
2022-11-23T03:31:07.468Z,99419.25
2022-11-23T03:33:33.964Z,99417.00
2022-11-23T03:36:00.494Z,99418.81
2022-11-23T03:38:27.258Z,99421.56
2022-11-23T03:40:53.739Z,99424.78
2022-11-23T03:43:21.302Z,99431.41
2022-11-23T03:45:47.760Z,99431.84
2022-11-23T03:48:14.498Z,99429.47
2022-11-23T03:50:40.990Z,99433.22
2022-11-23T03:53:07.794Z,99439.53
2022-11-23T03:55:34.651Z,99435.03
2022-11-23T03:58:01.368Z,99426.75
2022-11-23T04:00:28.950Z,99435.88
2022-11-23T04:02:55.779Z,99429.41
2022-11-23T04:05:22.495Z,99442.03
2022-11-23T04:07:50.141Z,99431.03
2022-11-23T04:10:18.194Z,99435.84
2022-11-23T04:12:44.947Z,99431.56
2022-11-23T04:15:12.437Z,99436.94
2022-11-23T04:17:38.985Z,99432.91
2022-11-23T04:20:06.137Z,99435.66
2022-11-23T04:22:32.570Z,99439.28
2022-11-23T04:24:59.058Z,99433.78
2022-11-23T04:27:25.509Z,99432.97
2022-11-23T04:29:51.942Z,99429.84
2022-11-23T04:32:18.354Z,99438.13
2022-11-23T04:34:44.864Z,99429.44
2022-11-23T04:37:13.440Z,99435.38
2022-11-23T04:39:40.294Z,99436.13
2022-11-23T04:42:06.918Z,99440.09
2022-11-23T04:44:33.392Z,99435.28
2022-11-23T04:46:59.836Z,99445.59
2022-11-23T04:49:26.286Z,99443.28
2022-11-23T04:51:52.718Z,99444.84
2022-11-23T04:54:19.167Z,99453.66
2022-11-23T04:56:45.747Z,99448.47
2022-11-23T04:59:12.269Z,99446.13
2022-11-23T05:01:38.772Z,99443.25
2022-11-23T05:04:05.432Z,99450.34
2022-11-23T05:06:31.884Z,99451.97
2022-11-23T05:08:58.292Z,99457.50
2022-11-23T05:11:24.770Z,99451.94
2022-11-23T05:13:51.292Z,99455.16
2022-11-23T05:16:17.767Z,99453.53
2022-11-23T05:18:44.238Z,99445.75
2022-11-23T05:21:10.658Z,99450.84
2022-11-23T05:23:37.112Z,99436.34
2022-11-23T05:26:03.597Z,99454.75
2022-11-23T05:28:40.378Z,99446.13
2022-11-23T05:31:08.004Z,99451.94
2022-11-23T05:33:34.558Z,99446.84
2022-11-23T05:36:01.015Z,99458.72
2022-11-23T05:38:27.730Z,99453.91
2022-11-23T05:40:54.234Z,99450.78
2022-11-23T05:43:20.644Z,99457.50
2022-11-23T05:45:47.036Z,99458.34
2022-11-23T05:48:13.519Z,99455.94
2022-11-23T05:50:40.073Z,99458.34
2022-11-23T05:53:06.532Z,99455.16
2022-11-23T05:55:32.958Z,99456.06
2022-11-23T05:57:59.380Z,99457.56
2022-11-23T06:00:25.829Z,99460.38
2022-11-23T06:02:52.311Z,99459.53
2022-11-23T06:05:18.840Z,99456.78
2022-11-23T06:07:45.385Z,99454.84
2022-11-23T06:10:12.389Z,99446.28
2022-11-23T06:12:38.860Z,99458.00
2022-11-23T06:15:05.885Z,99460.38
2022-11-23T06:17:32.278Z,99461.09
2022-11-23T06:19:58.737Z,99463.97
2022-11-23T06:22:25.170Z,99464.69
2022-11-23T06:24:51.583Z,99460.38
2022-11-23T06:27:18.532Z,99462.31
2022-11-23T06:29:46.868Z,99459.91
2022-11-23T06:32:13.661Z,99469.44
2022-11-23T06:34:40.063Z,99461.47
2022-11-23T06:37:06.535Z,99461.88
2022-11-23T06:39:33.390Z,99467.81
2022-11-23T06:42:23.438Z,99467.81
2022-11-23T06:44:46.550Z,99471.31
2022-11-23T06:47:16.878Z,99465.38
2022-11-23T06:49:44.843Z,99467.34
2022-11-23T06:52:11.274Z,99467.03
2022-11-23T06:54:37.745Z,99462.69
2022-11-23T06:57:08.000Z,99461.59
2022-11-23T06:59:34.687Z,99474.19
2022-11-23T07:02:01.424Z,99473.72
2022-11-23T07:04:27.920Z,99483.97
2022-11-23T07:06:54.345Z,99480.72
2022-11-23T07:09:20.925Z,99488.78
2022-11-23T07:11:47.361Z,99483.06
2022-11-23T07:14:13.900Z,99482.75
2022-11-23T07:16:40.347Z,99478.72
2022-11-23T07:19:06.810Z,99492.56
2022-11-23T07:21:33.281Z,99491.34
2022-11-23T07:23:59.728Z,99496.16
2022-11-23T07:26:26.202Z,99502.69
2022-11-23T07:28:52.729Z,99498.03
2022-11-23T07:31:19.199Z,99500.00
2022-11-23T07:33:46.580Z,99501.56
2022-11-23T07:36:14.005Z,99500.78
2022-11-23T07:38:40.544Z,99508.03
2022-11-23T07:41:06.991Z,99503.13
2022-11-23T07:43:33.479Z,99507.03
2022-11-23T07:45:59.968Z,99510.25
2022-11-23T07:48:28.104Z,99517.41
2022-11-23T07:50:56.194Z,99514.19
2022-11-23T07:53:23.688Z,99514.91
2022-11-23T07:55:50.141Z,99514.06
2022-11-23T07:58:16.618Z,99514.00
2022-11-23T08:00:43.160Z,99521.56
2022-11-23T08:03:30.607Z,99515.00
2022-11-23T08:05:57.268Z,99525.72
2022-11-23T08:08:23.958Z,99516.94
2022-11-23T08:10:53.919Z,99527.56
2022-11-23T08:13:21.931Z,99530.22
2022-11-23T08:15:53.807Z,99523.50
2022-11-23T08:18:21.821Z,99523.72
2022-11-23T08:20:48.419Z,99516.78
2022-11-23T08:23:14.869Z,99516.66
2022-11-23T08:25:41.546Z,99522.22
2022-11-23T08:28:08.032Z,99525.53
2022-11-23T08:30:35.173Z,99531.97
2022-11-23T08:33:05.676Z,99527.44
2022-11-23T08:35:40.038Z,99528.16
2022-11-23T08:38:08.306Z,99538.00
2022-11-23T08:40:35.989Z,99524.88
2022-11-23T08:43:03.044Z,99532.31
2022-11-23T08:45:29.629Z,99526.66
2022-11-23T08:48:00.951Z,99538.25
2022-11-23T08:50:29.292Z,99533.00
2022-11-23T08:53:00.045Z,99541.28
2022-11-23T08:55:27.746Z,99539.41
2022-11-23T08:57:57.949Z,99546.06
2022-11-23T09:00:25.947Z,99540.03
2022-11-23T09:02:52.609Z,99541.31
2022-11-23T09:05:19.353Z,99551.72
2022-11-23T09:07:45.862Z,99534.97
2022-11-23T09:10:17.758Z,99549.06
2022-11-23T09:12:45.241Z,99534.50
2022-11-23T09:15:12.223Z,99532.72
2022-11-23T09:17:38.683Z,99538.41
2022-11-23T09:20:05.708Z,99535.22
2022-11-23T09:22:32.187Z,99539.38
2022-11-23T09:24:58.692Z,99553.22
2022-11-23T09:27:25.849Z,99533.84
2022-11-23T09:29:52.411Z,99545.44
2022-11-23T09:32:18.865Z,99547.03
2022-11-23T09:34:45.459Z,99550.47
2022-11-23T09:37:13.100Z,99556.00
2022-11-23T09:39:39.743Z,99552.03
2022-11-23T09:42:33.682Z,99551.22
2022-11-23T09:45:09.332Z,99552.66
2022-11-23T09:47:41.484Z,99548.88
2022-11-23T09:50:07.871Z,99549.03
2022-11-23T09:52:36.491Z,99561.69
2022-11-23T09:55:16.618Z,99559.00
2022-11-23T09:57:46.353Z,99559.00
2022-11-23T10:00:17.750Z,99561.53
2022-11-23T10:02:44.351Z,99562.22
2022-11-23T10:05:17.455Z,99562.63
2022-11-23T10:08:06.359Z,99557.78
2022-11-23T10:10:49.262Z,99559.50
2022-11-23T10:13:18.662Z,99569.47
2022-11-23T10:16:15.941Z,99560.13
2022-11-23T10:19:06.830Z,99560.97
2022-11-23T10:21:53.791Z,99554.88
2022-11-23T10:24:25.081Z,99548.72
2022-11-23T10:26:51.763Z,99566.53
2022-11-23T10:29:35.329Z,99553.03
2022-11-23T10:32:02.112Z,99554.84
2022-11-23T10:34:56.593Z,99551.88
2022-11-23T10:37:23.017Z,99566.66
2022-11-23T10:39:49.623Z,99568.41
2022-11-23T10:42:44.202Z,99579.94
2022-11-23T10:45:25.242Z,99552.41
2022-11-23T10:47:59.386Z,99542.16
2022-11-23T10:50:27.647Z,99553.06
2022-11-23T10:53:00.961Z,99558.34
2022-11-23T10:55:31.432Z,99536.13
2022-11-23T10:57:58.915Z,99525.97
2022-11-23T11:00:30.827Z,99530.41
2022-11-23T11:02:59.395Z,99534.41
2022-11-23T11:06:09.420Z,99537.44
2022-11-23T11:08:30.132Z,99536.31
2022-11-23T11:10:59.776Z,99553.63
2022-11-23T11:13:45.211Z,99526.50
2022-11-23T11:16:30.796Z,99525.34
2022-11-23T11:18:57.921Z,99524.56
2022-11-23T11:21:31.985Z,99518.94
2022-11-23T11:24:02.583Z,99525.00
2022-11-23T11:26:31.508Z,99504.31
2022-11-23T11:29:02.134Z,99536.59
2022-11-23T11:31:31.423Z,99512.13
2022-11-23T11:34:18.066Z,99504.19
2022-11-23T11:36:52.751Z,99507.75
2022-11-23T11:39:27.439Z,99500.97
2022-11-23T11:41:58.086Z,99502.78
2022-11-23T11:44:27.277Z,99490.13
2022-11-23T11:47:04.390Z,99480.13
2022-11-23T11:49:40.274Z,99478.59
2022-11-23T11:52:18.993Z,99465.38
2022-11-23T11:55:11.677Z,99465.53
2022-11-23T11:57:57.928Z,99474.00
2022-11-23T12:00:24.360Z,99485.72
2022-11-23T12:03:28.082Z,99484.63
2022-11-23T12:06:01.398Z,99462.28
2022-11-23T12:08:40.905Z,99481.31
2022-11-23T12:11:11.619Z,99476.00
2022-11-23T12:13:42.079Z,99464.50
2022-11-23T12:16:26.635Z,99463.91
2022-11-23T12:18:56.133Z,99467.22
2022-11-23T12:21:41.298Z,99480.03
2022-11-23T12:24:30.869Z,99468.28
2022-11-23T12:27:36.077Z,99481.50
2022-11-23T12:30:21.427Z,99477.13
2022-11-23T12:33:12.526Z,99475.03
2022-11-23T12:35:54.140Z,99473.53
2022-11-23T12:38:24.064Z,99476.75
2022-11-23T12:41:20.948Z,99464.41
2022-11-23T12:44:26.101Z,99470.78
2022-11-23T12:47:14.248Z,99474.41
2022-11-23T12:49:53.915Z,99476.22
2022-11-23T12:52:35.041Z,99472.50
2022-11-23T12:55:20.592Z,99461.03
2022-11-23T12:58:05.526Z,99467.88
2022-11-23T13:00:39.026Z,99480.72
2022-11-23T13:03:23.687Z,99472.84
2022-11-23T13:06:05.566Z,99468.78
2022-11-23T13:08:38.240Z,99468.06
2022-11-23T13:11:26.592Z,99462.63
2022-11-23T13:13:59.188Z,99455.84
2022-11-23T13:16:41.259Z,99450.81
2022-11-23T13:19:10.681Z,99446.72
2022-11-23T13:21:43.734Z,99441.47
2022-11-23T13:24:34.377Z,99432.53
2022-11-23T13:27:13.298Z,99430.06
2022-11-23T13:29:49.217Z,99423.25
2022-11-23T13:32:34.233Z,99418.09
2022-11-23T13:35:00.893Z,99418.91
2022-11-23T13:37:27.323Z,99403.25
2022-11-23T13:39:57.575Z,99425.25
2022-11-23T13:42:27.961Z,99423.53
2022-11-23T13:45:24.494Z,99422.41
2022-11-23T13:48:19.453Z,99418.22
2022-11-23T13:50:59.897Z,99421.94
2022-11-23T13:53:32.127Z,99423.38
2022-11-23T13:56:18.231Z,99413.34
2022-11-23T13:58:56.000Z,99406.44
2022-11-23T14:02:00.044Z,99408.38
2022-11-23T14:04:28.924Z,99415.75
2022-11-23T14:07:36.878Z,99414.63
2022-11-23T14:10:15.314Z,99402.78
2022-11-23T14:13:02.938Z,99412.25
2022-11-23T14:15:34.007Z,99405.00
2022-11-23T14:18:03.263Z,99411.91
2022-11-23T14:20:40.104Z,99406.75
2022-11-23T14:23:28.188Z,99417.31
2022-11-23T14:26:16.157Z,99420.78
2022-11-23T14:29:10.191Z,99403.81
2022-11-23T14:32:00.045Z,99413.38
2022-11-23T14:34:44.802Z,99410.72
2022-11-23T14:37:25.758Z,99401.13
2022-11-23T14:40:01.410Z,99400.84
2022-11-23T14:42:30.347Z,99410.66
2022-11-23T14:45:04.680Z,99403.44
2022-11-23T14:47:32.562Z,99408.22
2022-11-23T14:49:59.150Z,99400.31
2022-11-23T14:52:32.202Z,99420.25
2022-11-23T14:55:02.164Z,99425.13
2022-11-23T14:57:38.528Z,99429.78
2022-11-23T15:00:11.462Z,99418.19
2022-11-23T15:02:41.239Z,99422.97
2022-11-23T15:05:24.173Z,99424.91
2022-11-23T15:07:59.790Z,99424.94
2022-11-23T15:10:45.044Z,99435.78
2022-11-23T15:13:23.855Z,99427.28
2022-11-23T15:15:55.741Z,99423.50
2022-11-23T15:18:32.785Z,99428.09
2022-11-23T15:21:03.504Z,99438.47
2022-11-23T15:23:36.305Z,99434.50
2022-11-23T15:26:06.410Z,99442.13
2022-11-23T15:28:36.443Z,99454.06
2022-11-23T15:31:22.073Z,99448.53
2022-11-23T15:33:50.882Z,99455.44
2022-11-23T15:36:24.377Z,99455.88
2022-11-23T15:38:53.306Z,99462.16
2022-11-23T15:41:20.451Z,99459.19
2022-11-23T15:43:53.901Z,99459.22
2022-11-23T15:46:25.372Z,99458.38
2022-11-23T15:48:54.762Z,99461.22
2022-11-23T15:51:40.400Z,99474.81
2022-11-23T15:54:20.795Z,99484.88
2022-11-23T15:56:50.788Z,99462.84
2022-11-23T15:59:40.827Z,99481.72
2022-11-23T16:02:15.840Z,99478.47
2022-11-23T16:04:44.070Z,99484.69
2022-11-23T16:07:23.670Z,99488.06
2022-11-23T16:10:32.148Z,99491.75
2022-11-23T16:13:01.461Z,99500.16
2022-11-23T16:15:34.073Z,99505.72
2022-11-23T16:18:02.290Z,99509.28
2022-11-23T16:20:29.899Z,99517.88
2022-11-23T16:22:59.330Z,99514.81
2022-11-23T16:25:31.485Z,99521.53
2022-11-23T16:28:02.091Z,99536.06
2022-11-23T16:30:40.688Z,99534.06
2022-11-23T16:33:15.207Z,99540.91
2022-11-23T16:35:41.818Z,99552.19
2022-11-23T16:38:08.478Z,99555.81
2022-11-23T16:40:35.403Z,99562.06
2022-11-23T16:43:03.929Z,99563.63
2022-11-23T16:45:31.766Z,99570.38
2022-11-23T16:48:01.032Z,99592.00
2022-11-23T16:50:34.860Z,99590.19
2022-11-23T16:53:11.263Z,99590.69
2022-11-23T16:55:42.246Z,99590.91
2022-11-23T16:58:14.630Z,99596.16
2022-11-23T17:00:41.962Z,99593.44
2022-11-23T17:03:19.290Z,99606.16
2022-11-23T17:05:46.332Z,99598.16
2022-11-23T17:08:16.718Z,99601.03
2022-11-23T17:10:46.622Z,99601.97
2022-11-23T17:13:27.639Z,99608.16
2022-11-23T17:15:54.567Z,99605.53
2022-11-23T17:18:22.332Z,99602.06
2022-11-23T17:20:48.885Z,99597.84
2022-11-23T17:23:15.444Z,99601.63
2022-11-23T17:25:42.102Z,99613.91
2022-11-23T17:28:15.706Z,99615.91
2022-11-23T17:30:42.344Z,99619.25
2022-11-23T17:33:11.371Z,99629.84
2022-11-23T17:35:38.536Z,99646.50
2022-11-23T17:38:06.299Z,99639.06
2022-11-23T17:40:32.797Z,99642.63
2022-11-23T17:42:59.311Z,99628.88
2022-11-23T17:45:25.882Z,99635.56
2022-11-23T17:47:52.430Z,99622.59
2022-11-23T17:50:19.486Z,99602.25
2022-11-23T17:52:47.308Z,99632.75
2022-11-23T17:55:15.355Z,99642.88
2022-11-23T17:57:42.210Z,99642.66
2022-11-23T18:00:18.245Z,99643.38
2022-11-23T18:02:45.074Z,99641.19
2022-11-23T18:05:15.266Z,99650.50
2022-11-23T18:07:46.148Z,99665.09
2022-11-23T18:10:15.920Z,99670.66
2022-11-23T18:12:44.496Z,99673.91
2022-11-23T18:15:11.843Z,99679.00
2022-11-23T18:17:38.676Z,99675.44
2022-11-23T18:20:08.067Z,99679.34
2022-11-23T18:22:35.175Z,99670.34
2022-11-23T18:25:01.927Z,99669.50
2022-11-23T18:27:29.724Z,99661.16
2022-11-23T18:29:56.415Z,99667.91
2022-11-23T18:32:22.847Z,99679.72
2022-11-23T18:34:49.322Z,99686.06
2022-11-23T18:37:15.839Z,99681.88
2022-11-23T18:39:42.307Z,99693.97
2022-11-23T18:42:08.886Z,99696.81
2022-11-23T18:44:35.572Z,99694.38
2022-11-23T18:47:02.053Z,99700.28
2022-11-23T18:49:28.496Z,99700.19
2022-11-23T18:51:54.971Z,99701.44
2022-11-23T18:54:21.473Z,99702.34
2022-11-23T18:56:48.061Z,99707.34
2022-11-23T18:59:35.173Z,99721.88
2022-11-23T19:02:01.054Z,99727.97
2022-11-23T19:04:27.686Z,99725.13
2022-11-23T19:06:54.130Z,99733.44
2022-11-23T19:09:20.561Z,99728.31
2022-11-23T19:11:47.046Z,99738.13
2022-11-23T19:14:13.505Z,99738.50
2022-11-23T19:16:39.927Z,99744.09
2022-11-23T19:19:07.532Z,99747.22
2022-11-23T19:21:35.355Z,99748.34
2022-11-23T19:24:02.374Z,99752.63
2022-11-23T19:26:29.711Z,99750.34
2022-11-23T19:28:58.657Z,99760.63
2022-11-23T19:31:27.534Z,99766.44
2022-11-23T19:33:57.268Z,99771.66
2022-11-23T19:36:25.250Z,99769.22
2022-11-23T19:38:51.944Z,99763.34
2022-11-23T19:41:19.004Z,99771.09
2022-11-23T19:43:45.834Z,99774.72
2022-11-23T19:46:13.870Z,99764.56
2022-11-23T19:48:42.018Z,99783.03
2022-11-23T19:51:12.066Z,99777.78
2022-11-23T19:53:40.178Z,99794.34
2022-11-23T19:56:33.078Z,99789.16
2022-11-23T19:59:01.091Z,99790.38
2022-11-23T20:01:29.427Z,99800.56
2022-11-23T20:03:57.868Z,99806.88
2022-11-23T20:06:27.217Z,99804.84
2022-11-23T20:08:55.542Z,99810.44
2022-11-23T20:11:22.423Z,99810.78
2022-11-23T20:13:49.199Z,99807.16
2022-11-23T20:16:18.019Z,99817.44
2022-11-23T20:18:46.305Z,99813.94
2022-11-23T20:21:18.408Z,99818.53
2022-11-23T20:23:46.104Z,99819.28
2022-11-23T20:26:15.502Z,99828.78
2022-11-23T20:28:42.769Z,99821.16
2022-11-23T20:31:20.380Z,99829.88
2022-11-23T20:33:47.579Z,99835.03
2022-11-23T20:36:16.626Z,99838.44
2022-11-23T20:38:43.916Z,99831.38
2022-11-23T20:41:28.279Z,99845.19
2022-11-23T20:43:57.248Z,99843.63
2022-11-23T20:47:00.071Z,99834.94
2022-11-23T20:49:11.431Z,99853.31
2022-11-23T20:51:37.866Z,99844.94
2022-11-23T20:54:04.420Z,99849.31
2022-11-23T20:56:32.155Z,99854.00
2022-11-23T20:59:04.065Z,99844.44
2022-11-23T21:01:30.863Z,99850.41
2022-11-23T21:03:59.477Z,99850.06
2022-11-23T21:06:27.277Z,99850.81
2022-11-23T21:08:54.158Z,99861.53
2022-11-23T21:11:41.023Z,99861.88
2022-11-23T21:14:18.542Z,99857.19
2022-11-23T21:16:53.304Z,99864.34
2022-11-23T21:19:22.228Z,99869.97
2022-11-23T21:21:49.232Z,99868.34
2022-11-23T21:24:15.883Z,99873.47
2022-11-23T21:26:42.547Z,99866.91
2022-11-23T21:29:11.052Z,99872.81
2022-11-23T21:31:39.090Z,99875.97
2022-11-23T21:34:05.549Z,99881.53
2022-11-23T21:36:36.855Z,99863.47
2022-11-23T21:39:08.790Z,99878.47
2022-11-23T21:41:35.806Z,99868.13
2022-11-23T21:44:02.867Z,99881.56
2022-11-23T21:46:29.394Z,99871.72
2022-11-23T21:48:57.753Z,99882.34
2022-11-23T21:51:29.930Z,99886.84
2022-11-23T21:53:58.723Z,99893.19
2022-11-23T21:56:26.625Z,99894.72
2022-11-23T21:58:53.558Z,99902.22
2022-11-23T22:01:22.646Z,99902.59
2022-11-23T22:04:03.570Z,99914.81
2022-11-23T22:06:30.096Z,99914.00
2022-11-23T22:08:59.646Z,99921.16
2022-11-23T22:11:28.771Z,99912.78
2022-11-23T22:14:05.551Z,99926.31
2022-11-23T22:16:37.663Z,99916.41
2022-11-23T22:19:05.328Z,99921.16
2022-11-23T22:21:34.213Z,99923.91
2022-11-23T22:24:01.302Z,99925.50
2022-11-23T22:26:28.222Z,99938.09
2022-11-23T22:28:56.026Z,99927.09
2022-11-23T22:31:24.911Z,99936.97
2022-11-23T22:33:53.233Z,99931.84
2022-11-23T22:36:21.739Z,99936.16
2022-11-23T22:38:56.609Z,99942.53
2022-11-23T22:41:27.613Z,99937.38
2022-11-23T22:43:54.597Z,99936.66
2022-11-23T22:46:23.727Z,99953.53
2022-11-23T22:48:51.819Z,99957.47
2022-11-23T22:51:20.771Z,99965.41
2022-11-23T22:53:47.589Z,99962.22
2022-11-23T22:56:18.706Z,99968.91
2022-11-23T22:58:46.608Z,99971.25
2022-11-23T23:01:15.510Z,99969.63
2022-11-23T23:03:42.613Z,99970.09
2022-11-23T23:06:18.850Z,99969.72
2022-11-23T23:08:47.047Z,99974.06
2022-11-23T23:11:14.747Z,99974.03
2022-11-23T23:13:41.787Z,99975.63
2022-11-23T23:16:12.020Z,99980.34
2022-11-23T23:18:39.367Z,99991.84
2022-11-23T23:21:10.993Z,99985.47
2022-11-23T23:23:39.049Z,99986.28
2022-11-23T23:26:06.470Z,99992.94
2022-11-23T23:28:33.499Z,99998.88
2022-11-23T23:31:04.867Z,99991.66
2022-11-23T23:33:33.330Z,99996.38
2022-11-23T23:36:09.643Z,100001.50
2022-11-23T23:38:37.355Z,100006.53
2022-11-23T23:41:04.974Z,100002.13
2022-11-23T23:43:31.625Z,100018.34
2022-11-23T23:45:59.875Z,100010.00
2022-11-23T23:48:29.755Z,100011.94
2022-11-23T23:50:56.581Z,100025.34
2022-11-23T23:53:23.504Z,100017.03
2022-11-23T23:56:01.153Z,100018.94
2022-11-23T23:58:28.706Z,100023.72
